createdAt,value
2022-09-16T00:00:16.946Z,7.82
2022-09-16T00:02:46.392Z,7.57
2022-09-16T00:05:15.919Z,6.97
2022-09-16T00:07:46.819Z,6.15
2022-09-16T00:10:16.930Z,6.25
2022-09-16T00:12:46.517Z,6.32
2022-09-16T00:15:16.077Z,7.03
2022-09-16T00:17:45.523Z,6.38
2022-09-16T00:20:14.973Z,6.43
2022-09-16T00:22:44.410Z,6.35
2022-09-16T00:25:15.355Z,7.38
2022-09-16T00:27:44.787Z,6.60
2022-09-16T00:30:14.359Z,7.65
2022-09-16T00:32:43.828Z,6.57
2022-09-16T00:35:13.245Z,7.57
2022-09-16T00:37:42.655Z,7.32
2022-09-16T00:40:13.852Z,6.75
2022-09-16T00:42:43.438Z,7.07
2022-09-16T00:45:19.719Z,7.20
2022-09-16T00:47:55.158Z,7.97
2022-09-16T00:50:36.299Z,7.97
2022-09-16T00:53:07.146Z,8.20
2022-09-16T00:55:40.669Z,7.97
2022-09-16T00:58:19.666Z,7.82
2022-09-16T01:00:50.429Z,8.18
2022-09-16T01:03:21.023Z,7.32
2022-09-16T01:05:51.390Z,8.00
2022-09-16T01:08:20.985Z,7.80
2022-09-16T01:10:51.951Z,7.30
2022-09-16T01:13:21.529Z,8.02
2022-09-16T01:16:05.401Z,8.07
2022-09-16T01:18:46.157Z,7.38
2022-09-16T01:21:34.186Z,8.35
2022-09-16T01:24:50.510Z,8.48
2022-09-16T01:28:13.158Z,7.20
2022-09-16T01:31:06.749Z,6.45
2022-09-16T01:33:54.538Z,7.47
2022-09-16T01:36:41.572Z,7.45
2022-09-16T01:39:26.280Z,7.30
2022-09-16T01:42:17.329Z,7.18
2022-09-16T01:45:00.867Z,7.78
2022-09-16T01:47:40.691Z,8.05
2022-09-16T01:50:20.077Z,7.72
2022-09-16T01:53:04.198Z,7.90
2022-09-16T01:55:42.260Z,7.40
2022-09-16T01:58:19.792Z,7.70
2022-09-16T02:00:53.157Z,7.13
2022-09-16T02:03:29.781Z,7.53
2022-09-16T02:06:04.297Z,6.75
2022-09-16T02:08:42.129Z,7.30
2022-09-16T02:11:17.295Z,6.90
2022-09-16T02:13:53.465Z,6.32
2022-09-16T02:16:30.403Z,6.72
2022-09-16T02:19:11.976Z,6.97
2022-09-16T02:21:45.794Z,7.35
2022-09-16T02:24:20.353Z,6.97
2022-09-16T02:27:03.409Z,7.18
2022-09-16T02:29:40.768Z,7.57
2022-09-16T02:32:12.680Z,6.72
2022-09-16T02:34:47.641Z,7.03
2022-09-16T02:37:21.314Z,7.38
2022-09-16T02:39:57.792Z,7.65
2022-09-16T02:42:27.333Z,7.88
2022-09-16T02:44:57.235Z,7.68
2022-09-16T02:47:34.172Z,7.80
2022-09-16T02:50:14.376Z,7.60
2022-09-16T02:52:54.122Z,7.95
2022-09-16T02:55:33.059Z,7.78
2022-09-16T02:58:02.599Z,7.43
2022-09-16T03:00:34.943Z,8.20
2022-09-16T03:03:04.575Z,7.80
2022-09-16T03:05:35.365Z,7.47
2022-09-16T03:08:06.892Z,7.47
2022-09-16T03:10:45.047Z,8.38
2022-09-16T03:13:25.515Z,7.22
2022-09-16T03:16:05.469Z,8.65
2022-09-16T03:18:53.535Z,7.22
2022-09-16T03:21:33.336Z,7.90
2022-09-16T03:24:12.401Z,8.63
2022-09-16T03:26:51.387Z,7.20
2022-09-16T03:29:26.616Z,8.13
2022-09-16T03:32:04.520Z,8.73
2022-09-16T03:34:39.816Z,8.40
2022-09-16T03:37:16.090Z,8.10
2022-09-16T03:39:53.579Z,8.40
2022-09-16T03:42:23.541Z,8.57
2022-09-16T03:44:53.477Z,8.27
2022-09-16T03:47:22.902Z,8.70
2022-09-16T03:49:52.450Z,8.82
2022-09-16T03:52:23.214Z,8.00
2022-09-16T03:54:52.596Z,7.57
2022-09-16T03:57:21.965Z,8.30
2022-09-16T03:59:51.322Z,7.70
2022-09-16T04:02:20.872Z,7.95
2022-09-16T04:04:50.351Z,9.32
2022-09-16T04:07:21.992Z,8.68
2022-09-16T04:09:51.461Z,7.90
2022-09-16T04:12:20.838Z,8.55
2022-09-16T04:14:50.698Z,8.55
2022-09-16T04:17:20.145Z,10.40
2022-09-16T04:19:49.621Z,9.88
2022-09-16T04:22:19.016Z,9.85
2022-09-16T04:24:49.760Z,9.55
2022-09-16T04:27:19.443Z,9.90
2022-09-16T04:29:48.892Z,10.07
2022-09-16T04:32:18.269Z,9.18
2022-09-16T04:34:47.658Z,9.90
2022-09-16T04:37:17.172Z,9.23
2022-09-16T04:39:47.163Z,9.82
2022-09-16T04:42:18.008Z,9.75
2022-09-16T04:44:47.412Z,9.65
2022-09-16T04:47:16.821Z,11.00
2022-09-16T04:49:46.392Z,10.60
2022-09-16T04:52:15.763Z,11.32
2022-09-16T04:54:45.152Z,9.48
2022-09-16T04:57:14.579Z,10.82
2022-09-16T04:59:45.482Z,10.90
2022-09-16T05:02:14.922Z,10.98
2022-09-16T05:04:44.286Z,11.55
2022-09-16T05:07:13.745Z,10.13
2022-09-16T05:09:43.145Z,10.80
2022-09-16T05:12:12.656Z,10.07
2022-09-16T05:14:42.033Z,10.00
2022-09-16T05:17:23.123Z,10.48
2022-09-16T05:20:07.338Z,11.10
2022-09-16T05:22:37.036Z,10.07
2022-09-16T05:25:07.720Z,11.13
2022-09-16T05:27:37.082Z,11.40
2022-09-16T05:30:08.642Z,10.57
2022-09-16T05:32:39.398Z,11.90
2022-09-16T05:35:10.461Z,10.43
2022-09-16T05:37:39.833Z,11.07
2022-09-16T05:40:10.647Z,10.80
2022-09-16T05:42:40.107Z,11.68
2022-09-16T05:45:11.028Z,10.35
2022-09-16T05:47:41.822Z,11.48
2022-09-16T05:50:11.709Z,10.63
2022-09-16T05:52:41.148Z,11.57
2022-09-16T05:55:10.797Z,11.60
2022-09-16T05:57:40.356Z,11.25
2022-09-16T06:00:12.749Z,11.25
2022-09-16T06:02:43.549Z,10.55
2022-09-16T06:05:13.305Z,10.20
2022-09-16T06:07:42.700Z,11.27
2022-09-16T06:10:12.114Z,10.80
2022-09-16T06:12:41.554Z,10.02
2022-09-16T06:15:12.945Z,11.60
2022-09-16T06:17:43.675Z,12.10
2022-09-16T06:20:14.770Z,10.75
2022-09-16T06:22:44.165Z,10.63
2022-09-16T06:25:13.620Z,10.80
2022-09-16T06:27:43.055Z,11.23
2022-09-16T06:30:13.149Z,11.32
2022-09-16T06:32:43.930Z,10.65
2022-09-16T06:35:13.393Z,10.57
2022-09-16T06:37:42.770Z,11.32
2022-09-16T06:40:12.559Z,11.18
2022-09-16T06:42:42.015Z,10.18
2022-09-16T06:45:12.551Z,10.18
2022-09-16T06:47:43.264Z,11.10
2022-09-16T06:50:12.729Z,10.00
2022-09-16T06:52:42.112Z,10.23
2022-09-16T06:55:12.724Z,9.98
2022-09-16T06:57:42.160Z,11.00
2022-09-16T07:00:14.200Z,9.93
2022-09-16T07:02:45.072Z,11.03
2022-09-16T07:05:15.054Z,10.32
2022-09-16T07:07:44.428Z,11.68
2022-09-16T07:10:14.189Z,11.18
2022-09-16T07:12:43.678Z,10.80
2022-09-16T07:15:13.395Z,11.27
2022-09-16T07:17:44.185Z,11.15
2022-09-16T07:20:13.655Z,11.70
2022-09-16T07:22:43.134Z,11.50
2022-09-16T07:25:12.630Z,10.10
2022-09-16T07:27:42.186Z,10.88
2022-09-16T07:30:13.183Z,10.48
2022-09-16T07:32:44.109Z,10.55
2022-09-16T07:35:13.616Z,10.52
2022-09-16T07:37:43.027Z,11.63
2022-09-16T07:40:13.468Z,11.80
2022-09-16T07:42:43.064Z,9.68
2022-09-16T07:45:12.825Z,10.45
2022-09-16T07:47:42.248Z,10.40
2022-09-16T07:50:13.150Z,11.63
2022-09-16T07:52:42.552Z,10.63
2022-09-16T07:55:12.932Z,12.32
2022-09-16T07:57:42.357Z,10.05
2022-09-16T08:00:16.128Z,11.82
2022-09-16T08:02:45.689Z,11.32
2022-09-16T08:05:16.832Z,11.65
2022-09-16T08:07:46.277Z,10.27
2022-09-16T08:10:16.201Z,9.68
2022-09-16T08:12:48.758Z,10.30
2022-09-16T08:17:48.734Z,11.57
2022-09-16T08:20:19.540Z,10.70
2022-09-16T08:22:48.979Z,10.65
2022-09-16T08:25:18.687Z,10.65
2022-09-16T08:27:48.715Z,10.48
2022-09-16T08:30:20.310Z,10.33
2022-09-16T08:32:49.801Z,10.43
2022-09-16T08:35:20.594Z,11.43
2022-09-16T08:37:50.291Z,10.80
2022-09-16T08:40:25.271Z,10.73
2022-09-16T08:43:10.976Z,11.65
2022-09-16T08:45:52.223Z,11.23
2022-09-16T08:48:36.691Z,10.50
2022-09-16T08:51:13.993Z,10.50
2022-09-16T08:53:49.804Z,10.70
2022-09-16T08:56:27.382Z,10.27
2022-09-16T08:59:01.826Z,10.65
2022-09-16T09:01:40.312Z,11.10
2022-09-16T09:04:10.081Z,9.85
2022-09-16T09:07:00.661Z,10.90
2022-09-16T09:09:51.985Z,9.82
2022-09-16T09:12:34.869Z,11.57
2022-09-16T09:15:28.610Z,9.90
2022-09-16T09:18:22.011Z,8.65
2022-09-16T09:24:07.789Z,10.85
2022-09-16T09:26:46.379Z,11.27
2022-09-16T09:29:47.561Z,10.70
2022-09-16T09:32:38.234Z,10.13
2022-09-16T09:35:52.961Z,10.48
2022-09-16T09:39:09.011Z,10.57
2022-09-16T09:41:45.547Z,11.00
2022-09-16T09:44:47.190Z,11.82
2022-09-16T09:47:23.952Z,11.88
2022-09-16T09:49:58.532Z,11.52
2022-09-16T09:52:39.237Z,10.73
2022-09-16T09:55:19.241Z,11.27
2022-09-16T09:58:20.685Z,11.07
2022-09-16T10:00:53.094Z,12.27
2022-09-16T10:03:23.181Z,11.15
2022-09-16T10:05:52.616Z,12.15
2022-09-16T10:08:30.964Z,12.27
2022-09-16T10:11:05.018Z,13.32
2022-09-16T10:13:34.429Z,12.13
2022-09-16T10:16:17.907Z,12.70
2022-09-16T10:18:56.866Z,9.95
2022-09-16T10:21:38.844Z,8.95
2022-09-16T10:24:33.057Z,9.50
2022-09-16T10:27:21.158Z,7.93
2022-09-16T10:30:14.065Z,9.40
2022-09-16T10:32:57.543Z,8.18
2022-09-16T10:35:30.305Z,8.30
2022-09-16T10:38:05.523Z,7.05
2022-09-16T10:40:35.634Z,7.20
2022-09-16T10:43:15.148Z,7.30
2022-09-16T10:45:50.128Z,7.43
2022-09-16T10:48:24.589Z,6.75
2022-09-16T10:50:57.161Z,6.75
2022-09-16T10:53:39.061Z,6.93
2022-09-16T10:56:20.991Z,7.80
2022-09-16T10:59:03.209Z,7.45
2022-09-16T11:01:48.757Z,8.00
2022-09-16T11:04:55.465Z,6.57
2022-09-16T11:07:38.554Z,6.80
2022-09-16T11:10:30.405Z,6.05
2022-09-16T11:13:32.366Z,5.45
2022-09-16T11:16:25.601Z,5.13
2022-09-16T11:19:06.972Z,5.68
2022-09-16T11:22:06.199Z,5.68
2022-09-16T11:25:20.471Z,6.10
2022-09-16T11:28:03.503Z,6.50
2022-09-16T11:30:41.829Z,4.82
2022-09-16T11:33:34.252Z,4.22
2022-09-16T11:36:41.521Z,4.03
2022-09-16T11:39:38.216Z,4.43
2022-09-16T11:42:20.394Z,4.70
2022-09-16T11:44:57.310Z,4.63
2022-09-16T11:47:55.544Z,5.25
2022-09-16T11:50:45.498Z,5.38
2022-09-16T11:53:45.636Z,6.68
2022-09-16T11:56:22.916Z,7.03
2022-09-16T11:58:58.533Z,6.07
2022-09-16T12:01:36.229Z,5.60
2022-09-16T12:04:17.789Z,5.78
2022-09-16T12:07:01.031Z,5.18
2022-09-16T12:09:42.233Z,5.30
2022-09-16T12:12:16.935Z,6.03
2022-09-16T12:14:53.295Z,5.18
2022-09-16T12:17:26.777Z,4.15
2022-09-16T12:20:01.969Z,4.47
2022-09-16T12:22:41.047Z,4.57
2022-09-16T12:25:16.114Z,4.13
2022-09-16T12:27:52.464Z,4.10
2022-09-16T12:30:25.286Z,5.40
2022-09-16T12:33:02.747Z,5.05
2022-09-16T12:35:38.185Z,5.22
2022-09-16T12:38:18.751Z,4.97
2022-09-16T12:41:10.827Z,4.38
2022-09-16T12:44:34.111Z,5.80
2022-09-16T12:47:31.868Z,4.97
2022-09-16T12:51:09.575Z,4.50
2022-09-16T12:54:17.251Z,5.13
2022-09-16T12:57:21.896Z,4.55
2022-09-16T13:00:23.051Z,4.10
2022-09-16T13:02:55.788Z,5.00
2022-09-16T13:05:33.107Z,3.97
2022-09-16T13:08:07.724Z,4.90
2022-09-16T13:11:12.909Z,4.30
2022-09-16T13:13:36.633Z,4.70
2022-09-16T13:16:09.239Z,4.13
2022-09-16T13:18:48.009Z,4.07
2022-09-16T13:21:27.064Z,3.35
2022-09-16T13:24:05.457Z,4.53
2022-09-16T13:26:45.790Z,3.85
2022-09-16T13:29:44.883Z,3.92
2022-09-16T13:32:43.051Z,3.78
2022-09-16T13:35:40.936Z,3.35
2022-09-16T13:38:39.624Z,2.85
2022-09-16T13:41:13.502Z,3.45
2022-09-16T13:43:54.654Z,3.92
2022-09-16T13:46:37.797Z,3.65
2022-09-16T13:49:23.461Z,3.67
2022-09-16T13:51:53.934Z,3.80
2022-09-16T13:54:53.532Z,4.60
2022-09-16T13:58:04.168Z,4.72
2022-09-16T14:00:47.136Z,5.53
2022-09-16T14:03:58.538Z,4.35
2022-09-16T14:07:09.589Z,4.75
2022-09-16T14:09:55.181Z,5.07
2022-09-16T14:12:40.333Z,5.40
2022-09-16T14:15:11.888Z,5.32
2022-09-16T14:17:51.394Z,5.57
2022-09-16T14:20:24.208Z,5.38
2022-09-16T14:23:04.785Z,6.03
2022-09-16T14:25:37.005Z,5.57
2022-09-16T14:28:20.143Z,4.37
2022-09-16T14:30:54.137Z,5.45
2022-09-16T14:33:32.866Z,5.32
2022-09-16T14:36:10.983Z,4.80
2022-09-16T14:38:46.876Z,5.15
2022-09-16T14:41:26.982Z,6.15
2022-09-16T14:44:04.141Z,5.38
2022-09-16T14:46:33.605Z,4.70
2022-09-16T14:49:04.389Z,5.13
2022-09-16T14:51:35.646Z,4.85
2022-09-16T14:54:13.332Z,4.40
2022-09-16T14:56:43.031Z,5.05
2022-09-16T14:59:15.669Z,5.85
2022-09-16T15:01:45.377Z,5.05
2022-09-16T15:04:28.841Z,4.97
2022-09-16T15:07:12.722Z,5.30
2022-09-16T15:09:48.889Z,5.82
2022-09-16T15:12:27.372Z,5.13
2022-09-16T15:14:57.304Z,5.38
2022-09-16T15:17:30.013Z,5.38
2022-09-16T15:20:01.276Z,5.68
2022-09-16T15:22:30.876Z,5.85
2022-09-16T15:25:00.496Z,4.85
2022-09-16T15:27:32.526Z,5.32
2022-09-16T15:30:05.745Z,5.10
2022-09-16T15:32:45.831Z,5.93
2022-09-16T15:35:25.851Z,5.53
2022-09-16T15:37:56.369Z,5.43
2022-09-16T15:40:36.000Z,5.78
2022-09-16T15:43:17.865Z,5.30
2022-09-16T15:46:00.920Z,5.45
2022-09-16T15:48:36.654Z,5.45
2022-09-16T15:51:20.059Z,5.20
2022-09-16T15:53:50.843Z,6.07
2022-09-16T15:56:29.892Z,5.50
2022-09-16T15:59:03.627Z,6.00
2022-09-16T16:01:43.603Z,5.75
2022-09-16T16:04:15.298Z,5.28
2022-09-16T16:06:55.682Z,5.80
2022-09-16T16:09:42.568Z,5.75
2022-09-16T16:12:16.168Z,5.68
2022-09-16T16:14:46.553Z,5.65
2022-09-16T16:17:20.406Z,5.50
2022-09-16T16:19:51.579Z,5.60
2022-09-16T16:22:22.807Z,6.05
2022-09-16T16:24:52.316Z,5.40
2022-09-16T16:27:21.722Z,5.20
2022-09-16T16:29:51.224Z,5.43
2022-09-16T16:32:20.555Z,5.75
2022-09-16T16:34:51.197Z,5.75
2022-09-16T16:37:45.045Z,6.20
2022-09-16T16:40:12.540Z,6.35
2022-09-16T16:42:43.431Z,5.90
2022-09-16T16:45:14.413Z,6.57
2022-09-16T16:47:46.221Z,6.38
2022-09-16T16:50:15.929Z,5.97
2022-09-16T16:52:51.275Z,6.47
2022-09-16T16:55:20.743Z,6.47
2022-09-16T16:57:50.665Z,7.07
2022-09-16T17:00:20.257Z,6.00
2022-09-16T17:02:49.654Z,6.88
2022-09-16T17:05:19.064Z,7.28
2022-09-16T17:07:50.023Z,6.63
2022-09-16T17:10:19.409Z,6.28
2022-09-16T17:12:48.791Z,7.47
2022-09-16T17:15:18.453Z,6.63
2022-09-16T17:17:47.893Z,7.80
2022-09-16T17:20:17.806Z,6.30
2022-09-16T17:22:47.358Z,7.35
2022-09-16T17:25:18.183Z,6.78
2022-09-16T17:27:47.762Z,6.53
2022-09-16T17:30:17.410Z,6.75
2022-09-16T17:32:46.983Z,7.13
2022-09-16T17:35:16.575Z,6.68
2022-09-16T17:37:48.805Z,7.13
2022-09-16T17:40:20.492Z,6.95
2022-09-16T17:42:52.692Z,7.38
2022-09-16T17:45:22.148Z,7.00
2022-09-16T17:47:51.554Z,7.82
2022-09-16T17:50:23.018Z,7.43
2022-09-16T17:52:52.632Z,6.93
2022-09-16T17:55:23.312Z,7.57
2022-09-16T17:57:52.701Z,7.68
2022-09-16T18:00:22.609Z,6.78
2022-09-16T18:02:52.101Z,7.95
2022-09-16T18:05:21.676Z,7.57
2022-09-16T18:07:51.174Z,8.05
2022-09-16T18:10:23.300Z,7.55
2022-09-16T18:12:53.462Z,7.78
2022-09-16T18:15:22.917Z,7.45
2022-09-16T18:17:52.704Z,7.70
2022-09-16T18:20:22.848Z,7.63
2022-09-16T18:22:54.723Z,7.78
2022-09-16T18:25:25.865Z,9.02
2022-09-16T18:27:55.473Z,7.78
2022-09-16T18:30:25.001Z,7.90
2022-09-16T18:32:55.096Z,8.93
2022-09-16T18:35:24.557Z,8.45
2022-09-16T18:37:54.152Z,8.23
2022-09-16T18:40:25.016Z,8.65
2022-09-16T18:42:55.598Z,8.80
2022-09-16T18:45:25.206Z,8.07
2022-09-16T18:47:55.191Z,8.55
2022-09-16T18:50:24.588Z,9.00
2022-09-16T18:52:54.027Z,7.88
2022-09-16T18:55:26.574Z,8.65
2022-09-16T18:57:56.053Z,8.23
2022-09-16T19:00:25.481Z,8.13
2022-09-16T19:02:55.809Z,8.65
2022-09-16T19:05:25.147Z,7.43
2022-09-16T19:07:54.542Z,7.43
2022-09-16T19:10:26.193Z,7.68
2022-09-16T19:12:56.172Z,7.22
2022-09-16T19:15:25.987Z,7.63
2022-09-16T19:17:56.629Z,6.70
2022-09-16T19:20:26.734Z,6.05
2022-09-16T19:22:56.369Z,6.70
2022-09-16T19:25:27.203Z,7.50
2022-09-16T19:27:56.608Z,6.88
2022-09-16T19:30:26.608Z,6.82
2022-09-16T19:32:56.723Z,7.55
2022-09-16T19:35:28.875Z,8.55
2022-09-16T19:37:58.476Z,7.78
2022-09-16T19:40:30.713Z,8.13
2022-09-16T19:43:00.137Z,7.57
2022-09-16T19:45:29.749Z,7.65
2022-09-16T19:47:59.259Z,8.60
2022-09-16T19:50:28.689Z,8.95
2022-09-16T19:52:58.099Z,8.55
2022-09-16T19:55:28.894Z,7.93
2022-09-16T19:57:58.276Z,8.30
2022-09-16T20:00:41.476Z,7.78
2022-09-16T20:03:17.146Z,7.90
2022-09-16T20:05:46.630Z,8.95
2022-09-16T20:08:16.158Z,8.98
2022-09-16T20:10:46.959Z,8.90
2022-09-16T20:13:16.365Z,9.20
2022-09-16T20:15:45.883Z,7.95
2022-09-16T20:18:15.307Z,8.38
2022-09-16T20:20:49.121Z,7.38
2022-09-16T20:23:18.704Z,7.18
2022-09-16T20:25:58.189Z,6.85
2022-09-16T20:28:31.914Z,7.10
2022-09-16T20:31:01.546Z,7.53
2022-09-16T20:33:33.533Z,7.20
2022-09-16T20:36:04.913Z,7.50
2022-09-16T20:38:35.785Z,6.95
2022-09-16T20:41:08.508Z,7.20
2022-09-16T20:43:38.050Z,7.40
2022-09-16T20:46:10.542Z,8.57
2022-09-16T20:48:40.246Z,6.97
2022-09-16T20:51:13.713Z,6.55
2022-09-16T20:53:44.305Z,7.30
2022-09-16T20:56:17.505Z,6.97
2022-09-16T21:01:20.560Z,7.25
2022-09-16T21:03:54.093Z,7.25
2022-09-16T21:06:25.425Z,7.13
2022-09-16T21:08:56.491Z,7.53
2022-09-16T21:11:29.754Z,6.68
2022-09-16T21:14:02.548Z,7.15
2022-09-16T21:16:33.053Z,7.57
2022-09-16T21:19:09.019Z,8.60
2022-09-16T21:21:42.265Z,8.57
2022-09-16T21:24:13.085Z,8.35
2022-09-16T21:26:45.322Z,8.20
2022-09-16T21:29:20.817Z,7.67
2022-09-16T21:31:50.815Z,8.07
2022-09-16T21:34:22.328Z,7.93
2022-09-16T21:36:53.076Z,8.55
2022-09-16T21:39:23.265Z,7.93
2022-09-16T21:41:54.009Z,8.45
2022-09-16T21:44:23.470Z,7.72
2022-09-16T21:46:52.858Z,7.90
2022-09-16T21:49:25.219Z,7.20
2022-09-16T21:51:57.069Z,7.30
2022-09-16T21:54:27.922Z,7.10
2022-09-16T21:56:59.456Z,7.60
2022-09-16T21:59:28.844Z,6.85
2022-09-16T22:02:02.956Z,7.32
2022-09-16T22:04:33.219Z,7.35
2022-09-16T22:07:02.666Z,6.82
2022-09-16T22:09:32.493Z,6.45
2022-09-16T22:12:03.517Z,7.50
2022-09-16T22:14:33.050Z,5.72
2022-09-16T22:17:02.461Z,6.13
2022-09-16T22:19:32.008Z,6.47
2022-09-16T22:22:01.371Z,5.28
2022-09-16T22:24:30.731Z,5.05
2022-09-16T22:27:00.105Z,5.95
2022-09-16T22:29:31.574Z,5.93
2022-09-16T22:32:01.102Z,6.05
2022-09-16T22:34:30.459Z,5.55
2022-09-16T22:36:59.855Z,5.32
2022-09-16T22:39:29.224Z,5.90
2022-09-16T22:41:58.616Z,6.43
2022-09-16T22:44:28.009Z,6.70
2022-09-16T22:46:58.767Z,5.82
2022-09-16T22:49:28.219Z,5.97
2022-09-16T22:51:57.640Z,5.95
2022-09-16T22:54:27.018Z,5.57
2022-09-16T22:56:56.392Z,6.85
2022-09-16T22:59:25.772Z,7.10
2022-09-16T23:01:55.217Z,6.20
2022-09-16T23:04:27.314Z,6.68
2022-09-16T23:06:56.808Z,7.43
2022-09-16T23:09:26.210Z,6.95
2022-09-16T23:11:55.584Z,6.88
2022-09-16T23:14:50.441Z,7.45
2022-09-16T23:17:19.826Z,6.97
2022-09-16T23:19:50.562Z,6.68
2022-09-16T23:22:19.925Z,6.15
2022-09-16T23:24:49.348Z,6.65
2022-09-16T23:27:18.757Z,6.43
2022-09-16T23:29:48.143Z,6.72
2022-09-16T23:32:17.612Z,6.95
2022-09-16T23:34:47.056Z,6.60
2022-09-16T23:37:17.953Z,5.38
2022-09-16T23:39:47.320Z,6.85
2022-09-16T23:42:16.972Z,6.00
2022-09-16T23:44:47.047Z,6.28
2022-09-16T23:47:16.451Z,5.55
2022-09-16T23:49:45.835Z,6.30
2022-09-16T23:52:15.382Z,5.65
2022-09-16T23:54:46.224Z,4.90
2022-09-16T23:57:15.594Z,5.03
2022-09-16T23:59:45.206Z,4.82
